Time;durP1;ratioP1;P1;durP2;ratioP2;P2;SDS_P1;SDS_P2;PMS_P1;PMS_P2;Temp;Humidity;BMP_temperature;BMP_pressure;BME280_temperature;BME280_humidity;BME280_pressure;Samples;Min_cycle;Max_cycle;Signal;HPM_P1;HPM_P2
2022/01/17 00:00:55;;;;;;;10.60;9.57;;;8.60;99.90;;;;;;4927074;29;20539;-62
2022/01/17 00:03:26;;;;;;;11.57;10.00;;;8.70;99.90;;;;;;4916312;29;20495;-62
2022/01/17 00:06:04;;;;;;;11.45;10.10;;;8.70;99.90;;;;;;4919353;29;20242;-61
2022/01/17 00:08:42;;;;;;;10.68;9.65;;;8.60;99.90;;;;;;4912328;29;20260;-62
2022/01/17 00:11:19;;;;;;;11.00;9.90;;;8.60;99.90;;;;;;4916128;29;20207;-63
2022/01/17 00:13:52;;;;;;;10.73;9.73;;;8.60;99.90;;;;;;4915984;29;20210;-62
2022/01/17 00:16:32;;;;;;;10.60;9.50;;;8.60;99.90;;;;;;4918144;29;20274;-61
2022/01/17 00:19:30;;;;;;;12.40;10.55;;;8.60;99.90;;;;;;4923054;29;20214;-62
2022/01/17 00:21:59;;;;;;;11.77;10.13;;;8.50;99.90;;;;;;4923610;29;20207;-62
2022/01/17 00:24:32;;;;;;;11.23;10.00;;;8.40;99.90;;;;;;4925816;29;20297;-63
2022/01/17 00:27:04;;;;;;;11.77;10.57;;;8.30;99.90;;;;;;4922718;29;20226;-64
2022/01/17 00:29:35;;;;;;;13.47;11.90;;;8.30;99.90;;;;;;4917165;29;20366;-62
2022/01/17 00:34:57;;;;;;;12.30;11.10;;;8.20;99.90;;;;;;4912089;29;20211;-61
2022/01/17 00:37:28;;;;;;;10.98;9.30;;;8.10;99.90;;;;;;4918358;29;20207;-63
2022/01/17 00:40:01;;;;;;;12.10;10.90;;;8.00;99.90;;;;;;4921768;29;20198;-61
2022/01/17 00:42:32;;;;;;;11.48;10.38;;;8.10;99.90;;;;;;4918410;29;20240;-61
2022/01/17 00:45:06;;;;;;;13.35;10.52;;;8.00;99.90;;;;;;4916105;29;20670;-61
2022/01/17 00:47:37;;;;;;;14.13;11.20;;;7.90;99.90;;;;;;4916685;29;20602;-62
2022/01/17 00:50:09;;;;;;;12.40;11.13;;;7.90;99.90;;;;;;4913814;29;20213;-62
2022/01/17 00:52:40;;;;;;;12.52;11.32;;;7.80;99.90;;;;;;4925810;29;20218;-62
2022/01/17 00:55:13;;;;;;;11.90;10.45;;;7.70;99.90;;;;;;4920146;29;20245;-62
2022/01/17 00:57:44;;;;;;;11.05;9.90;;;7.70;99.90;;;;;;4915950;29;20204;-62
2022/01/17 01:00:16;;;;;;;11.10;10.00;;;7.60;99.90;;;;;;4919927;29;20219;-62
2022/01/17 01:02:47;;;;;;;11.77;10.50;;;7.80;99.90;;;;;;4925192;29;20325;-62
2022/01/17 01:05:18;;;;;;;9.18;8.27;;;7.60;99.90;;;;;;4918297;29;20221;-62
2022/01/17 01:07:50;;;;;;;7.15;6.22;;;7.60;99.90;;;;;;4926160;29;20671;-63
2022/01/17 01:10:23;;;;;;;5.93;5.35;;;7.50;99.90;;;;;;4918709;29;20213;-62
2022/01/17 01:12:55;;;;;;;6.75;5.30;;;7.50;99.90;;;;;;4916818;29;20192;-63
2022/01/17 01:15:45;;;;;;;5.07;4.20;;;7.40;99.90;;;;;;4919024;29;20202;-63
2022/01/17 01:18:30;;;;;;;5.10;4.60;;;7.40;99.90;;;;;;4921022;29;20274;-63
2022/01/17 01:21:33;;;;;;;4.65;3.72;;;7.40;99.90;;;;;;4920584;29;20298;-63
2022/01/17 01:29:47;;;;;;;4.20;3.80;;;7.30;99.90;;;;;;4920792;29;20275;-63
2022/01/17 01:32:23;;;;;;;4.32;3.92;;;7.20;99.90;;;;;;4922407;29;20210;-62
2022/01/17 01:34:57;;;;;;;4.40;3.10;;;7.20;99.90;;;;;;4923749;29;20222;-62
2022/01/17 01:37:28;;;;;;;3.58;2.78;;;7.10;99.90;;;;;;4924553;29;20203;-63
2022/01/17 01:40:02;;;;;;;2.83;2.58;;;7.10;99.90;;;;;;4914528;29;20289;-63
2022/01/17 01:42:35;;;;;;;2.95;2.65;;;7.10;99.90;;;;;;4920644;29;20269;-62
2022/01/17 01:45:07;;;;;;;2.95;2.75;;;7.00;99.90;;;;;;4924252;29;20299;-62
2022/01/17 01:47:43;;;;;;;3.47;2.63;;;6.90;99.90;;;;;;4918078;29;20249;-62
2022/01/17 01:50:16;;;;;;;4.30;2.53;;;7.00;99.90;;;;;;4917989;29;20236;-63
2022/01/17 01:52:48;;;;;;;3.10;2.80;;;6.90;99.90;;;;;;4921113;29;20203;-62
2022/01/17 01:55:21;;;;;;;4.38;3.55;;;6.90;99.90;;;;;;4927396;29;20198;-62
2022/01/17 01:57:54;;;;;;;3.90;3.35;;;7.00;99.90;;;;;;4929148;29;20289;-63
2022/01/17 02:00:26;;;;;;;3.53;3.22;;;6.90;99.90;;;;;;4914738;29;20206;-62
2022/01/17 02:02:57;;;;;;;3.70;3.17;;;7.00;99.90;;;;;;4920408;29;20206;-61
2022/01/17 02:05:29;;;;;;;4.80;3.20;;;6.90;99.90;;;;;;4929606;29;20238;-61
2022/01/17 02:08:00;;;;;;;4.25;3.30;;;6.90;99.90;;;;;;4918016;29;20266;-61
2022/01/17 02:10:31;;;;;;;5.22;4.00;;;6.90;99.90;;;;;;4923691;29;20281;-62
2022/01/17 02:13:04;;;;;;;5.47;5.07;;;6.90;99.90;;;;;;4917974;29;20263;-62
2022/01/17 02:15:36;;;;;;;5.55;5.05;;;6.80;99.90;;;;;;4914279;29;20217;-62
2022/01/17 02:18:12;;;;;;;7.07;6.40;;;6.70;99.90;;;;;;4928814;29;20230;-62
2022/01/17 02:20:58;;;;;;;7.40;6.68;;;6.70;99.90;;;;;;4924591;29;20261;-62
2022/01/17 02:23:29;;;;;;;9.60;7.43;;;6.60;99.90;;;;;;4924729;29;20234;-64
2022/01/17 02:26:01;;;;;;;13.90;12.50;;;6.70;99.90;;;;;;4923073;29;20222;-61
2022/01/17 02:28:33;;;;;;;9.88;8.95;;;6.70;99.90;;;;;;4927703;29;20258;-61
2022/01/17 02:31:05;;;;;;;12.00;10.75;;;6.80;99.90;;;;;;4925209;29;20207;-65
2022/01/17 02:33:37;;;;;;;10.40;9.40;;;6.80;99.90;;;;;;4915206;29;20223;-62
2022/01/17 02:36:10;;;;;;;9.32;8.48;;;6.70;99.90;;;;;;4921500;29;20230;-61
2022/01/17 02:38:42;;;;;;;8.90;8.05;;;6.70;99.90;;;;;;4920179;29;20249;-61
2022/01/17 02:41:13;;;;;;;9.93;8.93;;;6.70;99.90;;;;;;4927272;29;20202;-62
2022/01/17 02:43:46;;;;;;;13.20;8.57;;;6.70;99.90;;;;;;4926978;29;20607;-63
2022/01/17 02:46:26;;;;;;;9.90;8.73;;;6.70;99.90;;;;;;4918090;29;20325;-68
2022/01/17 02:48:59;;;;;;;10.00;8.73;;;6.70;99.90;;;;;;4921488;29;20235;-67
2022/01/17 02:51:32;;;;;;;9.30;8.50;;;6.70;99.90;;;;;;4916465;29;20269;-64
2022/01/17 02:54:04;;;;;;;11.02;8.20;;;6.70;99.90;;;;;;4914325;29;20238;-63
2022/01/17 02:56:37;;;;;;;9.57;8.52;;;6.70;99.90;;;;;;4920551;29;20222;-64
2022/01/17 02:59:08;;;;;;;10.35;8.95;;;6.60;99.90;;;;;;4922784;29;20210;-69
2022/01/17 03:01:39;;;;;;;9.50;8.70;;;6.60;99.90;;;;;;4927036;29;20266;-63
2022/01/17 03:04:11;;;;;;;10.55;9.45;;;6.60;99.90;;;;;;4913512;29;20231;-60
2022/01/17 03:06:49;;;;;;;10.30;9.30;;;6.50;99.90;;;;;;4924715;29;20281;-60
2022/01/17 03:09:21;;;;;;;11.38;9.50;;;6.50;99.90;;;;;;4923098;29;20269;-61
2022/01/17 03:11:55;;;;;;;12.85;10.95;;;6.60;99.90;;;;;;4928492;29;20230;-61
2022/01/17 03:14:25;;;;;;;10.15;9.15;;;6.60;99.90;;;;;;4922343;29;20202;-62
2022/01/17 03:16:56;;;;;;;10.20;9.18;;;6.60;99.90;;;;;;4910097;29;20207;-61
2022/01/17 03:19:29;;;;;;;9.82;8.82;;;6.50;99.90;;;;;;4924333;29;20203;-61
2022/01/17 03:22:02;;;;;;;11.02;10.00;;;6.50;99.90;;;;;;4923118;29;20207;-61
2022/01/17 03:24:33;;;;;;;12.50;10.95;;;6.40;99.90;;;;;;4927720;29;20271;-61
2022/01/17 03:27:04;;;;;;;7.47;6.75;;;6.40;99.90;;;;;;4923675;29;20213;-62
2022/01/17 03:29:35;;;;;;;8.07;7.38;;;6.30;99.90;;;;;;4926884;29;20262;-62
2022/01/17 03:32:06;;;;;;;7.78;7.07;;;6.40;99.90;;;;;;4916606;29;20207;-62
2022/01/17 03:34:39;;;;;;;5.60;5.10;;;6.30;99.90;;;;;;4914850;29;20207;-62
2022/01/17 03:37:14;;;;;;;8.90;6.50;;;6.40;99.90;;;;;;4915924;29;20207;-61
2022/01/17 03:39:46;;;;;;;6.15;5.57;;;6.30;99.90;;;;;;4915288;29;20212;-62
2022/01/17 03:42:18;;;;;;;6.35;5.75;;;6.30;99.90;;;;;;4917098;29;20535;-62
2022/01/17 03:44:49;;;;;;;5.97;5.47;;;6.30;99.90;;;;;;4927636;29;20219;-62
2022/01/17 03:47:20;;;;;;;8.90;7.10;;;6.20;99.90;;;;;;4915712;29;20246;-61
2022/01/17 03:49:51;;;;;;;6.75;6.05;;;6.30;99.90;;;;;;4916836;29;20207;-62
2022/01/17 03:52:23;;;;;;;7.20;6.65;;;6.20;99.90;;;;;;4924634;29;20225;-61
2022/01/17 03:54:55;;;;;;;7.38;6.63;;;6.20;99.90;;;;;;4919388;29;20206;-62
2022/01/17 03:57:30;;;;;;;7.22;6.30;;;6.30;99.90;;;;;;4925617;29;20226;-62
2022/01/17 04:00:01;;;;;;;7.35;6.68;;;6.30;99.90;;;;;;4920199;29;20198;-61
2022/01/17 04:02:32;;;;;;;7.90;7.20;;;6.20;99.90;;;;;;4912145;29;20206;-61
2022/01/17 04:05:04;;;;;;;8.20;7.38;;;6.20;99.90;;;;;;4919993;29;20227;-61
2022/01/17 04:07:37;;;;;;;9.30;6.68;;;6.10;99.90;;;;;;4917994;29;20301;-62
2022/01/17 04:10:09;;;;;;;7.00;6.40;;;6.10;99.90;;;;;;4913407;29;20217;-62
2022/01/17 04:12:40;;;;;;;6.18;5.68;;;6.10;99.90;;;;;;4913302;29;20191;-62
2022/01/17 04:15:14;;;;;;;6.80;6.20;;;6.10;99.90;;;;;;4918234;29;20195;-61
2022/01/17 04:17:45;;;;;;;7.38;6.65;;;6.20;99.90;;;;;;4923725;29;20302;-61
2022/01/17 04:20:26;;;;;;;6.90;6.30;;;6.20;99.90;;;;;;4916103;29;20203;-61
2022/01/17 04:22:59;;;;;;;6.72;6.05;;;6.10;99.90;;;;;;4910502;29;20211;-62
2022/01/17 04:25:32;;;;;;;7.32;6.47;;;6.10;99.90;;;;;;4923825;29;20757;-61
2022/01/17 04:28:05;;;;;;;7.50;6.75;;;6.10;99.90;;;;;;4918390;29;20271;-61
2022/01/17 04:30:36;;;;;;;7.88;7.07;;;6.10;99.90;;;;;;4923714;29;20191;-61
2022/01/17 04:33:08;;;;;;;8.13;7.35;;;6.10;99.90;;;;;;4924089;29;20196;-61
2022/01/17 04:35:39;;;;;;;7.13;6.05;;;6.10;99.90;;;;;;4922354;29;20298;-61
2022/01/17 04:38:15;;;;;;;6.60;5.95;;;6.00;99.90;;;;;;4921137;29;20218;-62
2022/01/17 04:40:47;;;;;;;4.55;4.15;;;6.00;99.90;;;;;;4917795;29;20203;-61
2022/01/17 04:43:22;;;;;;;3.50;3.20;;;6.00;99.90;;;;;;4916648;29;20203;-61
2022/01/17 04:45:53;;;;;;;4.45;3.97;;;6.00;99.90;;;;;;4924224;29;20230;-62
2022/01/17 04:48:25;;;;;;;4.22;3.88;;;6.10;99.90;;;;;;4921164;29;20639;-61
2022/01/17 04:50:56;;;;;;;4.43;4.05;;;6.00;99.90;;;;;;4922698;29;20226;-61
2022/01/17 04:53:29;;;;;;;4.30;4.00;;;6.00;99.90;;;;;;4917692;29;20225;-61
2022/01/17 04:56:00;;;;;;;4.07;3.78;;;5.90;99.90;;;;;;4921833;29;20597;-61
2022/01/17 04:58:31;;;;;;;4.97;3.50;;;5.90;99.90;;;;;;4917850;29;20199;-61
2022/01/17 05:01:02;;;;;;;4.90;4.18;;;5.90;99.90;;;;;;4925287;29;20194;-61
2022/01/17 05:03:35;;;;;;;3.90;3.60;;;5.90;99.90;;;;;;4928880;29;20564;-64
2022/01/17 05:06:06;;;;;;;5.30;4.10;;;5.90;99.90;;;;;;4927362;29;20261;-65
2022/01/17 05:08:38;;;;;;;5.35;4.50;;;5.90;99.90;;;;;;4912501;29;20306;-63
2022/01/17 05:11:09;;;;;;;4.35;3.55;;;5.90;99.90;;;;;;4923195;29;20207;-62
2022/01/17 05:13:46;;;;;;;3.70;3.40;;;5.80;99.90;;;;;;4923482;29;20207;-62
2022/01/17 05:16:19;;;;;;;4.38;4.05;;;5.90;99.90;;;;;;4920674;29;20196;-63
2022/01/17 05:21:38;;;;;;;4.60;4.20;;;5.80;99.90;;;;;;4923750;29;20207;-62
2022/01/17 05:24:12;;;;;;;4.20;3.90;;;5.90;99.90;;;;;;4917840;29;20214;-62
2022/01/17 05:26:45;;;;;;;4.88;4.47;;;5.80;99.90;;;;;;4927348;29;20232;-61
2022/01/17 05:29:16;;;;;;;5.88;5.28;;;5.80;99.90;;;;;;4925840;29;20202;-61
2022/01/17 05:31:47;;;;;;;7.03;5.22;;;5.80;99.90;;;;;;4922516;29;20194;-61
2022/01/17 05:34:18;;;;;;;5.38;4.88;;;5.80;99.90;;;;;;4918912;29;20298;-61
2022/01/17 05:36:49;;;;;;;7.38;6.38;;;5.80;99.90;;;;;;4918660;29;20211;-60
2022/01/17 05:39:21;;;;;;;13.73;10.18;;;5.90;99.90;;;;;;4920380;29;20207;-61
2022/01/17 05:42:14;;;;;;;10.68;9.55;;;5.90;99.90;;;;;;4926591;29;20211;-61
2022/01/17 05:44:46;;;;;;;7.82;6.85;;;5.80;99.90;;;;;;4897365;29;20219;-61
2022/01/17 05:47:17;;;;;;;6.45;5.85;;;5.80;99.90;;;;;;4928250;29;20230;-61
2022/01/17 05:49:49;;;;;;;7.00;6.10;;;5.80;99.90;;;;;;4926024;29;20207;-61
2022/01/17 05:52:20;;;;;;;10.30;6.93;;;5.70;99.90;;;;;;4928759;29;20282;-61
2022/01/17 05:54:54;;;;;;;7.18;6.47;;;5.70;99.90;;;;;;4929100;29;20626;-60
2022/01/17 05:57:24;;;;;;;5.85;5.35;;;5.70;99.90;;;;;;4928194;29;20235;-61
2022/01/17 05:59:55;;;;;;;8.45;5.60;;;5.70;99.90;;;;;;4926936;29;20211;-62
2022/01/17 06:02:26;;;;;;;6.00;5.20;;;5.70;99.90;;;;;;4927626;29;20303;-61
2022/01/17 06:04:57;;;;;;;6.00;5.50;;;5.70;99.90;;;;;;4929321;29;20198;-61
2022/01/17 06:07:28;;;;;;;7.55;5.50;;;5.70;99.90;;;;;;4922782;29;20247;-60
2022/01/17 06:10:00;;;;;;;7.38;5.60;;;5.70;99.90;;;;;;4922223;29;20217;-60
2022/01/17 06:12:31;;;;;;;6.50;5.78;;;5.60;99.90;;;;;;4925665;29;20659;-61
2022/01/17 06:15:02;;;;;;;6.70;5.90;;;5.70;99.90;;;;;;4924322;29;20223;-61
2022/01/17 06:17:33;;;;;;;7.03;5.97;;;5.60;99.90;;;;;;4927805;29;20246;-61
2022/01/17 06:20:05;;;;;;;6.65;5.95;;;5.60;99.90;;;;;;4928516;29;20203;-61
2022/01/17 06:22:36;;;;;;;6.75;6.10;;;5.60;99.90;;;;;;4927208;29;20214;-61
2022/01/17 06:25:09;;;;;;;7.63;6.85;;;5.60;99.90;;;;;;4911087;29;20216;-61
2022/01/17 06:27:41;;;;;;;7.70;6.97;;;5.60;99.90;;;;;;4927219;29;20211;-61
2022/01/17 06:30:13;;;;;;;7.00;6.30;;;5.60;99.90;;;;;;4927201;29;20207;-60
2022/01/17 06:32:44;;;;;;;9.50;7.45;;;5.60;99.90;;;;;;4929172;29;20593;-61
2022/01/17 06:35:15;;;;;;;8.25;6.80;;;5.50;99.90;;;;;;4928544;29;20198;-60
2022/01/17 06:37:48;;;;;;;7.90;7.20;;;5.50;99.90;;;;;;4927326;29;20593;-60
2022/01/17 06:40:21;;;;;;;8.68;7.63;;;5.50;99.90;;;;;;4918355;29;20198;-61
2022/01/17 06:42:52;;;;;;;8.77;7.30;;;5.40;99.90;;;;;;4915315;29;20242;-61
2022/01/17 06:45:22;;;;;;;8.75;7.30;;;5.40;99.90;;;;;;4923431;29;20224;-60
2022/01/17 06:47:53;;;;;;;8.23;7.25;;;5.50;99.90;;;;;;4927139;29;20262;-60
2022/01/17 06:50:24;;;;;;;7.50;6.80;;;5.50;99.90;;;;;;4921347;29;20203;-61
2022/01/17 06:52:55;;;;;;;8.50;7.30;;;5.40;99.90;;;;;;4926232;29;20212;-61
2022/01/17 06:55:27;;;;;;;9.63;7.88;;;5.40;99.90;;;;;;4927234;29;20195;-60
2022/01/17 06:57:58;;;;;;;7.20;6.40;;;5.40;99.90;;;;;;4925144;29;20679;-60
2022/01/17 07:00:29;;;;;;;8.40;6.95;;;5.40;99.90;;;;;;4925026;29;20270;-61
2022/01/17 07:03:01;;;;;;;9.48;7.40;;;5.50;99.90;;;;;;4927172;29;20197;-61
2022/01/17 07:05:32;;;;;;;8.80;7.57;;;5.50;99.90;;;;;;4923827;29;20603;-60
2022/01/17 07:08:02;;;;;;;8.50;7.68;;;5.50;99.90;;;;;;4923483;29;20220;-60
2022/01/17 07:10:35;;;;;;;8.55;7.75;;;5.50;99.90;;;;;;4928055;29;20210;-60
2022/01/17 07:13:06;;;;;;;8.80;7.93;;;5.40;99.90;;;;;;4924522;29;20214;-61
2022/01/17 07:15:39;;;;;;;10.38;8.55;;;5.40;99.90;;;;;;4917539;29;20292;-60
2022/01/17 07:18:12;;;;;;;9.55;8.65;;;5.30;99.90;;;;;;4926086;29;20199;-61
2022/01/17 07:20:48;;;;;;;7.70;6.97;;;5.30;99.90;;;;;;4926865;29;20198;-61
2022/01/17 07:23:19;;;;;;;11.90;8.98;;;5.30;99.90;;;;;;4927046;29;20274;-61
2022/01/17 07:25:53;;;;;;;8.27;7.18;;;5.30;99.90;;;;;;4927730;29;20230;-61
2022/01/17 07:28:28;;;;;;;10.05;8.02;;;5.30;99.90;;;;;;4927370;29;20230;-61
2022/01/17 07:30:59;;;;;;;6.75;6.05;;;5.20;99.90;;;;;;4923513;29;20568;-61
2022/01/17 07:33:32;;;;;;;7.43;6.47;;;5.20;99.90;;;;;;4928088;29;20210;-61
2022/01/17 07:36:02;;;;;;;7.63;6.80;;;5.20;99.90;;;;;;4922841;29;20192;-60
2022/01/17 07:38:34;;;;;;;7.68;6.97;;;5.20;99.90;;;;;;4925705;29;20210;-60
2022/01/17 07:41:08;;;;;;;10.75;7.55;;;5.20;99.90;;;;;;4916948;29;20211;-61
2022/01/17 07:44:01;;;;;;;7.65;6.40;;;5.20;99.90;;;;;;4926617;29;20231;-62
2022/01/17 07:46:35;;;;;;;8.43;7.18;;;5.20;99.90;;;;;;4922661;29;20246;-60
2022/01/17 07:49:14;;;;;;;8.38;7.07;;;5.20;99.90;;;;;;4927753;29;20210;-61
2022/01/17 07:51:46;;;;;;;7.35;6.65;;;5.10;99.90;;;;;;4925214;29;20344;-61
2022/01/17 07:54:18;;;;;;;7.38;6.68;;;5.00;99.90;;;;;;4926060;29;20218;-61
2022/01/17 07:56:51;;;;;;;8.07;7.13;;;5.00;99.90;;;;;;4926331;29;20213;-61
2022/01/17 07:59:22;;;;;;;8.55;6.78;;;5.00;99.90;;;;;;4927348;29;20270;-61
2022/01/17 08:01:53;;;;;;;8.10;7.13;;;5.00;99.90;;;;;;4922598;29;20285;-61
2022/01/17 08:04:24;;;;;;;8.48;7.15;;;5.00;99.90;;;;;;4916300;29;20217;-61
2022/01/17 08:06:55;;;;;;;7.10;6.20;;;5.00;99.90;;;;;;4924171;29;20305;-61
2022/01/17 08:09:29;;;;;;;9.07;6.85;;;4.90;99.90;;;;;;4927303;29;20213;-61
2022/01/17 08:12:10;;;;;;;7.95;6.50;;;4.90;99.90;;;;;;4912505;29;20199;-60
2022/01/17 08:14:41;;;;;;;7.82;7.00;;;4.90;99.90;;;;;;4917098;29;20400;-61
2022/01/17 08:17:13;;;;;;;8.15;7.10;;;4.90;99.90;;;;;;4927157;29;20278;-61
2022/01/17 08:19:44;;;;;;;7.32;6.63;;;4.90;99.90;;;;;;4914077;29;20295;-60
2022/01/17 08:22:15;;;;;;;8.48;7.15;;;4.90;99.90;;;;;;4925345;29;20724;-60
2022/01/17 08:24:46;;;;;;;8.18;6.50;;;4.90;99.90;;;;;;4926556;29;20286;-61
2022/01/17 08:27:19;;;;;;;6.57;5.50;;;4.80;99.90;;;;;;4927641;29;20309;-61
2022/01/17 08:29:50;;;;;;;7.05;5.75;;;4.90;99.90;;;;;;4926310;29;20289;-60
2022/01/17 08:32:41;;;;;;;8.38;6.60;;;4.90;99.90;;;;;;4916455;29;20211;-61
2022/01/17 08:35:13;;;;;;;8.10;6.60;;;4.70;99.90;;;;;;4927295;29;20653;-61
2022/01/17 08:37:44;;;;;;;6.55;5.95;;;4.80;99.90;;;;;;4927057;29;20203;-61
2022/01/17 08:40:16;;;;;;;7.20;6.47;;;4.80;99.90;;;;;;4911340;29;20202;-61
2022/01/17 08:42:49;;;;;;;7.82;5.80;;;4.80;99.90;;;;;;4926799;29;20302;-61
2022/01/17 08:45:23;;;;;;;4.72;4.30;;;4.80;99.90;;;;;;4921022;29;20225;-60
2022/01/17 08:48:14;;;;;;;5.10;4.60;;;4.70;99.90;;;;;;4918548;29;20698;-61
2022/01/17 08:50:47;;;;;;;5.20;4.70;;;4.70;99.90;;;;;;4917211;29;20779;-60
2022/01/17 08:53:19;;;;;;;5.35;4.90;;;4.80;99.90;;;;;;4926065;29;20234;-60
2022/01/17 08:55:50;;;;;;;5.35;4.85;;;4.80;99.90;;;;;;4920721;29;20207;-61
2022/01/17 08:58:22;;;;;;;5.20;4.70;;;4.80;99.90;;;;;;4910530;29;20199;-61
2022/01/17 09:00:54;;;;;;;6.15;5.00;;;4.80;99.90;;;;;;4918481;29;20195;-61
2022/01/17 09:03:26;;;;;;;5.55;4.03;;;4.70;99.90;;;;;;4926667;29;20226;-61
2022/01/17 09:05:57;;;;;;;4.70;4.30;;;4.70;99.90;;;;;;4926225;29;20214;-61
2022/01/17 09:08:28;;;;;;;3.90;3.55;;;4.70;99.90;;;;;;4926246;29;20240;-60
2022/01/17 09:10:59;;;;;;;4.70;4.30;;;4.70;99.90;;;;;;4926240;29;20272;-60
2022/01/17 09:13:31;;;;;;;4.97;4.47;;;4.60;99.90;;;;;;4923051;29;20265;-60
2022/01/17 09:16:04;;;;;;;4.28;3.70;;;4.50;99.90;;;;;;4926299;29;20198;-60
2022/01/17 09:18:35;;;;;;;4.70;3.60;;;4.40;99.90;;;;;;4926766;29;20207;-61
2022/01/17 09:21:07;;;;;;;5.22;4.40;;;4.30;99.90;;;;;;4925867;29;20226;-60
2022/01/17 09:23:39;;;;;;;4.32;3.92;;;4.20;99.90;;;;;;4925991;29;20214;-59
2022/01/17 09:26:10;;;;;;;4.60;4.20;;;4.20;99.90;;;;;;4926429;29;20295;-60
2022/01/17 09:28:44;;;;;;;3.53;3.22;;;4.20;99.90;;;;;;4918691;29;20225;-59
2022/01/17 09:31:14;;;;;;;5.18;4.03;;;4.10;99.90;;;;;;4921423;29;20217;-60
2022/01/17 09:33:45;;;;;;;3.53;3.30;;;4.00;99.90;;;;;;4926209;29;20214;-60
2022/01/17 09:36:16;;;;;;;5.50;3.83;;;3.90;99.90;;;;;;4925195;29;20211;-60
2022/01/17 09:38:47;;;;;;;4.55;3.97;;;3.80;99.90;;;;;;4925594;29;20214;-60
2022/01/17 09:41:18;;;;;;;4.47;4.07;;;3.80;99.90;;;;;;4928502;29;20261;-60
2022/01/17 09:43:53;;;;;;;5.10;4.38;;;3.80;99.90;;;;;;4926854;29;20242;-59
2022/01/17 09:46:27;;;;;;;6.30;4.15;;;3.80;99.90;;;;;;4926693;29;20243;-59
2022/01/17 09:49:12;;;;;;;5.03;4.60;;;3.70;99.90;;;;;;4917958;29;20234;-59
2022/01/17 09:52:12;;;;;;;4.35;3.92;;;3.70;99.90;;;;;;4930020;29;20584;-59
2022/01/17 09:54:46;;;;;;;5.95;3.80;;;3.70;99.90;;;;;;4918511;29;20211;-59
2022/01/17 09:57:18;;;;;;;5.43;4.55;;;3.70;99.90;;;;;;4930179;29;20270;-61
2022/01/17 09:59:51;;;;;;;5.32;3.88;;;3.70;99.90;;;;;;4928176;29;20207;-59
2022/01/17 10:02:22;;;;;;;4.20;3.75;;;3.70;99.90;;;;;;4916318;29;20202;-60
2022/01/17 10:04:53;;;;;;;5.20;4.22;;;3.70;99.90;;;;;;4929861;29;20298;-59
2022/01/17 10:07:27;;;;;;;5.68;4.45;;;3.70;99.90;;;;;;4925329;29;20641;-60
2022/01/17 10:09:59;;;;;;;4.35;3.95;;;3.70;99.90;;;;;;4928808;29;20237;-60
2022/01/17 10:12:29;;;;;;;4.75;4.30;;;3.70;99.90;;;;;;4928497;29;20656;-60
2022/01/17 10:15:05;;;;;;;5.68;4.53;;;3.80;99.90;;;;;;4928937;29;20214;-60
2022/01/17 10:17:47;;;;;;;4.82;4.05;;;3.80;99.90;;;;;;4929644;29;20274;-60
2022/01/17 10:20:18;;;;;;;4.30;4.00;;;3.80;99.90;;;;;;4924807;29;20230;-60
2022/01/17 10:23:15;;;;;;;4.65;4.25;;;3.80;99.90;;;;;;4922787;29;20206;-60
2022/01/17 10:26:08;;;;;;;4.18;3.47;;;3.80;99.90;;;;;;4924390;29;20223;-60
2022/01/17 10:29:00;;;;;;;6.43;3.95;;;3.80;99.90;;;;;;4916065;29;20242;-60
2022/01/17 10:37:13;;;;;;;3.58;2.90;;;3.90;99.90;;;;;;4916153;29;20625;-60
2022/01/17 10:39:55;;;;;;;2.95;2.75;;;3.80;99.90;;;;;;4927946;29;20271;-60
2022/01/17 10:42:28;;;;;;;5.07;4.40;;;3.90;99.90;;;;;;4915553;29;20203;-60
2022/01/17 10:45:08;;;;;;;4.00;3.70;;;3.90;99.90;;;;;;4927702;29;20201;-60
2022/01/17 10:47:49;;;;;;;4.07;3.65;;;3.90;99.90;;;;;;4914550;29;20270;-60
2022/01/17 10:50:21;;;;;;;4.40;4.00;;;3.90;99.90;;;;;;4929537;29;20242;-59
2022/01/17 10:52:54;;;;;;;3.95;3.47;;;4.00;99.90;;;;;;4927647;29;20202;-59
2022/01/17 10:55:29;;;;;;;5.43;3.40;;;4.00;99.90;;;;;;4928357;29;20202;-60
2022/01/17 10:58:03;;;;;;;5.10;3.28;;;4.00;99.90;;;;;;4927430;29;20210;-60
2022/01/17 11:00:36;;;;;;;5.00;3.58;;;4.10;99.90;;;;;;4925186;29;20206;-59
2022/01/17 11:03:11;;;;;;;2.92;2.70;;;4.10;99.90;;;;;;4928175;29;20199;-60
2022/01/17 11:05:44;;;;;;;3.20;2.90;;;4.10;99.90;;;;;;4921081;29;20227;-59
2022/01/17 11:08:19;;;;;;;3.85;3.55;;;4.20;99.90;;;;;;4910845;29;20270;-60
2022/01/17 11:10:53;;;;;;;7.20;6.13;;;4.20;99.90;;;;;;4926894;29;20316;-60
2022/01/17 11:13:26;;;;;;;7.38;6.65;;;4.30;99.90;;;;;;4913068;29;20242;-60
2022/01/17 11:15:58;;;;;;;7.40;6.70;;;4.40;99.90;;;;;;4928584;29;20191;-60
2022/01/17 11:18:32;;;;;;;7.40;6.70;;;4.50;99.90;;;;;;4926525;29;20207;-59
2022/01/17 11:21:10;;;;;;;9.77;7.38;;;4.50;99.90;;;;;;4928099;29;20318;-59
2022/01/17 11:23:43;;;;;;;7.57;6.80;;;4.40;99.90;;;;;;4927481;29;20213;-60
2022/01/17 11:26:15;;;;;;;9.00;7.88;;;4.40;99.90;;;;;;4928150;29;20310;-60
2022/01/17 11:28:49;;;;;;;9.52;6.97;;;4.50;99.90;;;;;;4924434;29;20237;-60
2022/01/17 11:31:20;;;;;;;9.75;7.50;;;4.50;99.90;;;;;;4927168;29;20234;-60
2022/01/17 11:33:52;;;;;;;10.00;8.00;;;4.40;99.90;;;;;;4919257;29;20203;-60
2022/01/17 11:36:23;;;;;;;11.82;8.07;;;4.50;99.90;;;;;;4927845;29;20361;-59
2022/01/17 11:38:55;;;;;;;11.13;7.63;;;4.60;99.90;;;;;;4926886;29;20206;-60
2022/01/17 11:41:28;;;;;;;11.77;8.80;;;4.60;99.90;;;;;;4927333;29;20210;-60
2022/01/17 11:44:00;;;;;;;9.63;8.32;;;4.60;99.90;;;;;;4926587;29;20225;-60
2022/01/17 11:46:34;;;;;;;10.57;8.35;;;4.60;99.90;;;;;;4911642;29;20243;-60
2022/01/17 11:49:08;;;;;;;11.07;9.63;;;4.60;99.90;;;;;;4928056;29;20257;-60
2022/01/17 11:51:44;;;;;;;9.57;8.52;;;4.50;99.90;;;;;;4922967;29;20229;-60
2022/01/17 11:54:17;;;;;;;10.32;9.32;;;4.60;99.90;;;;;;4919646;29;20212;-60
2022/01/17 11:56:51;;;;;;;11.70;9.45;;;4.50;99.90;;;;;;4927561;29;20206;-60
2022/01/17 11:59:32;;;;;;;10.95;9.27;;;4.40;99.90;;;;;;4916979;29;20238;-60
2022/01/17 12:02:24;;;;;;;10.75;9.13;;;4.40;99.90;;;;;;4927690;29;20277;-60
2022/01/17 12:05:37;;;;;;;11.93;9.55;;;4.40;99.90;;;;;;4925196;29;20282;-60
2022/01/17 12:08:15;;;;;;;12.55;10.25;;;4.40;99.90;;;;;;4920323;29;20221;-60
2022/01/17 12:10:51;;;;;;;13.57;10.30;;;4.40;99.90;;;;;;4926832;29;20266;-60
2022/01/17 12:13:41;;;;;;;11.75;10.55;;;4.40;99.90;;;;;;4923738;29;20613;-60
2022/01/17 12:16:34;;;;;;;15.40;12.85;;;4.30;99.90;;;;;;4926548;29;20242;-60
2022/01/17 12:19:11;;;;;;;10.40;9.40;;;4.30;99.90;;;;;;4927245;29;20203;-59
2022/01/17 12:21:53;;;;;;;12.50;10.27;;;4.30;99.90;;;;;;4925700;29;20289;-60
2022/01/17 12:24:45;;;;;;;13.02;10.50;;;4.30;99.90;;;;;;4910416;29;20206;-60
2022/01/17 12:27:19;;;;;;;14.13;11.43;;;4.30;99.90;;;;;;4927446;29;20209;-60
2022/01/17 12:29:58;;;;;;;12.98;11.35;;;4.30;99.90;;;;;;4926791;29;20238;-60
2022/01/17 12:32:54;;;;;;;13.55;10.93;;;4.30;99.90;;;;;;4926994;29;20214;-60
2022/01/17 12:35:29;;;;;;;14.77;12.10;;;4.20;99.90;;;;;;4924074;29;20809;-60
2022/01/17 12:38:13;;;;;;;12.23;10.70;;;4.20;99.90;;;;;;4927301;29;20275;-60
2022/01/17 12:41:00;;;;;;;14.63;11.18;;;4.20;99.90;;;;;;4920999;29;20211;-60
2022/01/17 12:43:33;;;;;;;15.82;11.57;;;4.20;99.90;;;;;;4918547;29;20206;-60
2022/01/17 12:46:10;;;;;;;11.65;10.45;;;4.10;99.90;;;;;;4923126;29;20198;-60
2022/01/17 12:48:41;;;;;;;13.18;10.65;;;4.20;99.90;;;;;;4916941;29;20230;-60
2022/01/17 12:51:15;;;;;;;13.20;11.25;;;4.20;99.90;;;;;;4925531;29;20286;-60
2022/01/17 12:53:55;;;;;;;13.55;11.15;;;4.10;99.90;;;;;;4925404;29;20297;-60
2022/01/17 12:56:26;;;;;;;13.18;11.23;;;4.10;99.90;;;;;;4921491;29;20293;-61
2022/01/17 12:59:02;;;;;;;13.85;10.32;;;4.10;99.90;;;;;;4922701;29;20675;-60
2022/01/17 13:01:33;;;;;;;19.38;11.18;;;4.20;99.90;;;;;;4911530;29;20230;-60
2022/01/17 13:04:06;;;;;;;13.57;11.50;;;4.20;99.90;;;;;;4927270;29;20598;-60
2022/01/17 13:06:37;;;;;;;13.95;11.73;;;4.20;99.90;;;;;;4922901;29;20586;-60
2022/01/17 13:09:14;;;;;;;13.13;10.68;;;4.20;99.90;;;;;;4918693;29;20269;-60
2022/01/17 13:11:46;;;;;;;13.88;11.55;;;4.20;99.90;;;;;;4912117;29;20250;-61
2022/01/17 13:14:19;;;;;;;12.43;11.13;;;4.20;99.90;;;;;;4926629;29;20286;-60
2022/01/17 13:16:51;;;;;;;13.63;12.15;;;4.10;99.90;;;;;;4928693;29;20644;-60
2022/01/17 13:19:23;;;;;;;14.40;10.75;;;4.10;99.90;;;;;;4930878;29;20358;-60
2022/01/17 13:21:54;;;;;;;14.63;11.55;;;4.10;99.90;;;;;;4930311;29;20211;-60
2022/01/17 13:24:35;;;;;;;15.80;11.95;;;4.20;99.90;;;;;;4915649;29;20207;-60
2022/01/17 13:27:10;;;;;;;12.75;10.85;;;4.10;99.90;;;;;;4930585;29;20751;-60
2022/01/17 13:29:41;;;;;;;14.50;11.07;;;4.10;99.90;;;;;;4927041;29;20237;-60
2022/01/17 13:32:13;;;;;;;14.75;12.07;;;4.20;99.90;;;;;;4926955;29;20249;-60
2022/01/17 13:34:45;;;;;;;13.38;11.35;;;4.20;99.90;;;;;;4930293;29;20301;-60
2022/01/17 13:37:18;;;;;;;13.25;10.77;;;4.30;99.90;;;;;;4930244;29;20207;-60
2022/01/17 13:39:58;;;;;;;15.32;11.55;;;4.30;99.90;;;;;;4929844;29;20333;-60
2022/01/17 13:42:51;;;;;;;14.15;11.77;;;4.30;99.90;;;;;;4929855;29;20214;-60
2022/01/17 13:45:40;;;;;;;12.90;10.55;;;4.30;99.90;;;;;;4924037;29;20210;-60